West Friendship, Maryland
Current Conditions -  °F | °C
As of 8:55 AM on Monday 24 Nov 2014 (Local Time) from KGAI Reporting Station
Overcast Overcast  
Wind Chill: 18°   Ceiling: 1900
Heat Index: 18°   Visibility: 10mi
Dew Point: 14°   Wind: 9mph
Humidity: 77%   Direction: 200°SSW
Pressure: 29.71"   Gusts: NA
Location:  39.3°N, 76.95°W
Report Text: KGAI 241355Z 20008KT 10SM OVC019 18/14 A2971 RMK AO1
Loading
Personal Weather Stations






























Interactive Weather Map New forecast layout! Learn more

10-Day Weather Forecast

Advertisements
Track Severe Weather on mobile